• Join FlightAware (Why Join?)
  • Login
  • US Flag 
03:24PM EDT


 

Airport Tracker/Info


-or-


 

Live Flight TrackerFlight Track Log ✈ TAI577 ✈ 21-Jul-2013 ✈ KJFK - MSLP / SAL

Flight Track Log - Related Links

Times and Time Zones

All times are in EDT time to prevent confusion due to time zone crossing. See the TAI577 flight status page for this flight to view local times or setup timezone preferences in your user account.

Time Position Orientation Groundspeed Altitude Reporting Facility
EDT Latitude Longitude Course Direction KTS MPH feet Rate Location/Type
06:27AM 40.6280 -73.7820 210° Southwest 25 29  Level FlightAware
06:27AM 40.6270 -73.7830 217° Southwest 25 29 180 Level FlightAware
06:28AM 40.6260 -73.7840 217° Southwest 26 30 180 Level FlightAware
06:28AM 40.6250 -73.7850 217° Southwest 23 26 180 Level FlightAware
06:28AM 40.6240 -73.7860 217° Southwest 25 29 240 Level FlightAware
06:29AM 40.6230 -73.7860 180° South 21 24 240 Level FlightAware
06:30AM 40.6220 -73.7860 143° Southeast 23 26 300 Level FlightAware
06:31AM 40.4702 -73.6202 143° Southeast  Level FlightAware Approximate
06:31AM 40.6240 -73.7840 37° Northeast 43 49  Level FlightAware
06:32AM 40.6350 -73.7750 32° Northeast 145 167 1,020 Level FlightAware
06:32AM 40.6530 -73.7600 32° Northeast 161 185 1,000 2,100 Climbing FlightAware
06:32AM 40.6560 -73.7450 75° East 160 184 1,600 1,740 Climbing FlightAware
06:32AM 40.6564 -73.7366 86° East 167 192 1,700 1,740 Climbing FlightAware ADS-B
06:33AM 40.6580 -73.6870 88° East 176 203 3,200 1,560 Climbing FlightAware
06:34AM 40.6520 -73.6410 100° East 215 247 4,000 1,260 Climbing FlightAware
06:34AM 40.6380 -73.6010 115° Southeast 250 288 4,700 1,500 Climbing FlightAware
06:35AM 40.6313 -73.5834 117° Southeast 262 302 5,100 1,680 Climbing FlightAware ADS-B
06:35AM 40.6266 -73.5714 117° Southeast 272 313 5,300 1,980 Climbing FlightAware ADS-B
06:35AM 40.6208 -73.5615 128° Southeast 276 318 5,600 2,280 Climbing FlightAware ADS-B
06:35AM 40.6098 -73.5511 144° Southeast 280 322 6,000 2,400 Climbing FlightAware ADS-B
06:35AM 40.6051 -73.5484 156° South 280 322 6,200 3,000 Climbing FlightAware ADS-B
06:35AM 40.5972 -73.5450 162° South 279 321 6,500 2,700 Climbing FlightAware ADS-B
06:35AM 40.5780 -73.5376 164° South 283 326 7,200 2,760 Climbing FlightAware ADS-B
06:36AM 40.5584 -73.5301 164° South 288 331 8,000 3,180 Climbing FlightAware ADS-B
06:36AM 40.5366 -73.5215 163° South 284 327 8,900 3,180 Climbing FlightAware ADS-B
06:36AM 40.5217 -73.5153 162° South 289 333 9,500 2,400 Climbing FlightAware ADS-B
06:36AM 40.5084 -73.5101 163° South 294 338 9,800 2,100 Climbing FlightAware ADS-B
06:37AM 40.4953 -73.5066 169° South 296 341 10,200 2,280 Climbing FlightAware ADS-B
06:37AM 40.4855 -73.5032 165° South 300 345 10,500 1,980 Climbing FlightAware ADS-B
06:37AM 40.4749 -73.4986 162° South 309 356 10,700 1,260 Climbing FlightAware ADS-B
06:37AM 40.4382 -73.4806 160° South 338 389 11,200 1,620 Climbing FlightAware ADS-B
06:38AM 40.4060 -73.4669 162° South 346 398 12,000 2,280 Climbing FlightAware ADS-B
06:38AM 40.3924 -73.4626 166° South 344 396 12,400 2,340 Climbing FlightAware ADS-B
06:38AM 40.3417 -73.4528 172° South 351 404 13,600 2,400 Climbing FlightAware ADS-B
06:39AM 40.2913 -73.4431 172° South 354 407 14,900 2,280 Climbing FlightAware ADS-B
06:39AM 40.2411 -73.4338 172° South 362 417 16,000 2,220 Climbing FlightAware ADS-B
06:39AM 40.2202 -73.4314 175° South 359 413 16,500 2,220 Climbing FlightAware ADS-B
06:40AM 40.1971 -73.4355 188° South 351 404 17,000 1,860 Climbing FlightAware ADS-B
06:40AM 40.1861 -73.4406 200° South 349 402 17,200 1,800 Climbing FlightAware ADS-B
06:40AM 40.1773 -73.4465 207° Southwest 345 397 17,400 1,680 Climbing FlightAware ADS-B
06:40AM 40.1325 -73.4802 210° Southwest 355 409 18,300 1,740 Climbing FlightAware ADS-B
06:41AM 40.0827 -73.5170 209° Southwest 360 414 19,400 1,860 Climbing FlightAware ADS-B
06:42AM 40.0212 -73.5631 210° Southwest 365 420 20,700 1,800 Climbing FlightAware ADS-B
06:42AM 39.9763 -73.5969 210° Southwest 367 422 21,600 1,500 Climbing FlightAware ADS-B
06:43AM 39.9299 -73.6318 210° Southwest 372 428 22,300 1,200 Climbing FlightAware ADS-B
06:43AM 39.8748 -73.6730 210° Southwest 379 436 23,000 840 Climbing FlightAware ADS-B
06:44AM 39.8272 -73.7087 210° Southwest 397 457 23,300 840 Climbing FlightAware ADS-B
06:44AM 39.7767 -73.7465 210° Southwest 404 465 23,900 1,140 Climbing FlightAware ADS-B
06:45AM 39.7194 -73.7894 210° Southwest 408 470 24,600 1,080 Climbing FlightAware ADS-B
06:46AM 39.6698 -73.8276 211° Southwest 416 479 25,100 1,140 Climbing FlightAware ADS-B
06:46AM 39.6184 -73.8674 211° Southwest 418 481 25,800 1,140 Climbing FlightAware ADS-B
06:47AM 39.5688 -73.9055 211° Southwest 421 484 26,300 840 Climbing FlightAware ADS-B
06:47AM 39.5169 -73.9453 211° Southwest 428 493 26,700 1,140 Climbing FlightAware ADS-B
06:48AM 39.4646 -73.9853 211° Southwest 425 489 27,500 1,080 Climbing FlightAware ADS-B
06:48AM 39.4120 -74.0256 211° Southwest 433 498 27,800 660 Climbing FlightAware ADS-B
06:49AM 39.3614 -74.0642 211° Southwest 438 504 28,200 780 Climbing FlightAware ADS-B
06:49AM 39.3083 -74.1045 210° Southwest 445 512 28,600 840 Climbing FlightAware ADS-B
06:50AM 39.2522 -74.1471 210° Southwest 446 513 29,100 960 Climbing FlightAware ADS-B
06:50AM 39.1769 -74.2041 210° Southwest 448 516 29,800 780 Climbing FlightAware ADS-B
06:51AM 39.1223 -74.2455 210° Southwest 454 522 30,100 660 Climbing FlightAware ADS-B
06:51AM 39.0675 -74.2869 210° Southwest 456 525 30,500 1,020 Climbing FlightAware ADS-B
06:52AM 39.0114 -74.3292 210° Southwest 452 520 31,200 1,320 Climbing FlightAware ADS-B
06:52AM 38.9569 -74.3702 210° Southwest 449 517 31,900 1,140 Climbing FlightAware ADS-B
06:53AM 38.8986 -74.4140 210° Southwest 447 514 32,400 1,140 Climbing FlightAware ADS-B
06:53AM 38.8458 -74.4536 210° Southwest 441 507 33,100 1,200 Climbing FlightAware ADS-B
06:54AM 38.7903 -74.4951 210° Southwest 439 505 33,700 960 Climbing FlightAware ADS-B
06:55AM 38.7209 -74.5484 211° Southwest 439 505 34,300 900 Climbing FlightAware ADS-B
06:55AM 38.6880 -74.5758 213° Southwest 437 503 34,600 960 Climbing FlightAware ADS-B
06:55AM 38.6384 -74.6172 213° Southwest 435 501 35,100 900 Climbing FlightAware ADS-B
06:56AM 38.5873 -74.6591 213° Southwest 434 499 35,500 660 Climbing FlightAware ADS-B
06:56AM 38.5347 -74.7016 212° Southwest 436 502 35,800 480 Climbing FlightAware ADS-B
06:57AM 38.4829 -74.7433 212° Southwest 437 503 36,000 180 Climbing FlightAware ADS-B
06:57AM 38.4282 -74.7877 212° Southwest 440 506 36,000  Level FlightAware ADS-B
06:58AM 38.3756 -74.8301 212° Southwest 441 507 36,000  Level FlightAware ADS-B
06:58AM 38.3217 -74.8735 212° Southwest 443 510 36,000  Level FlightAware ADS-B
06:59AM 38.2646 -74.9193 212° Southwest 445 512 36,000  Level FlightAware ADS-B
07:00AM 38.1942 -74.9757 212° Southwest 446 513 36,000  Level FlightAware ADS-B
07:00AM 38.1417 -75.0176 212° Southwest 447 514 36,000  Level FlightAware ADS-B
07:01AM 38.0880 -75.0604 212° Southwest 448 516 36,000  Level FlightAware ADS-B
07:01AM 38.0321 -75.1050 212° Southwest 449 517 36,000  Level FlightAware ADS-B
07:02AM 37.9805 -75.1462 212° Southwest 449 517 36,000  Level FlightAware ADS-B
07:02AM 37.9274 -75.1884 212° Southwest 450 518 36,000  Level FlightAware ADS-B
07:03AM 37.8628 -75.2394 212° Southwest 450 518 36,000  Level FlightAware ADS-B
07:03AM 37.8114 -75.2801 212° Southwest 450 518 36,000  Level FlightAware ADS-B
07:04AM 37.7522 -75.3270 212° Southwest 449 517 36,000  Level FlightAware ADS-B
07:04AM 37.6956 -75.3717 212° Southwest 448 516 36,000  Level FlightAware ADS-B
07:05AM 37.6428 -75.4134 212° Southwest 450 518 36,000  Level FlightAware ADS-B
07:05AM 37.5880 -75.4563 212° Southwest 450 518 36,000  Level FlightAware ADS-B
07:06AM 37.5339 -75.4986 212° Southwest 450 518 36,000  Level FlightAware ADS-B
07:06AM 37.4797 -75.5410 212° Southwest 451 519 36,000  Level FlightAware ADS-B
07:07AM 37.4219 -75.5863 212° Southwest 453 521 36,000  Level FlightAware ADS-B
07:08AM 37.3665 -75.6296 212° Southwest 453 521 36,000  Level FlightAware ADS-B
07:08AM 37.2870 -75.6914 212° Southwest 453 521 36,000  Level FlightAware ADS-B
07:09AM 37.2197 -75.7437 212° Southwest 453 521 36,000  Level FlightAware ADS-B
07:09AM 37.1627 -75.7877 212° Southwest 453 521 36,000  Level FlightAware ADS-B
07:10AM 37.1079 -75.8300 212° Southwest 453 521 36,000  Level FlightAware ADS-B
07:10AM 37.0538 -75.8719 212° Southwest 453 521 36,000  Level FlightAware ADS-B
07:11AM 36.9982 -75.9149 212° Southwest 453 521 36,000  Level FlightAware ADS-B
07:11AM 36.9446 -75.9561 212° Southwest 453 521 36,000  Level FlightAware ADS-B
07:12AM 36.8870 -76.0004 212° Southwest 455 524 36,000  Level FlightAware ADS-B
07:13AM 36.8240 -76.0488 212° Southwest 455 524 36,000  Level FlightAware ADS-B
07:13AM 36.7640 -76.0940 211° Southwest 456 525 36,000  Level FlightAware
07:13AM 36.7259 -76.1236 212° Southwest 456 525 36,000  Level FlightAware ADS-B
07:14AM 36.6706 -76.1658 211° Southwest 459 528 36,000  Level FlightAware ADS-B
07:15AM 36.6120 -76.2110 212° Southwest 457 526 36,000  Level FlightAware
07:15AM 36.5550 -76.2539 211° Southwest 458 527 36,000  Level FlightAware ADS-B
07:16AM 36.4570 -76.3280 211° Southwest 452 520 36,000  Level FlightAware
07:17AM 36.3840 -76.3840 212° Southwest 452 520 36,000  Level FlightAware
07:17AM 36.2950 -76.4510 211° Southwest 459 528 36,000  Level FlightAware
07:18AM 36.2270 -76.5020 211° Southwest 452 520 36,000  Level FlightAware
07:19AM 36.1460 -76.5630 211° Southwest 453 521 36,000  Level FlightAware
07:20AM 36.0740 -76.6170 211° Southwest 454 522 36,000  Level FlightAware
07:20AM 36.0120 -76.6630 211° Southwest 455 524 36,000  Level FlightAware
07:21AM 35.9430 -76.7140 211° Southwest 457 526 36,000  Level FlightAware
07:21AM 35.8840 -76.7580 211° Southwest 457 526 36,000  Level FlightAware
07:22AM 35.7520 -76.8570 211° Southwest 457 526 36,000  Level FlightAware
07:23AM 35.6920 -76.9010 211° Southwest 457 526 36,000  Level FlightAware
07:24AM 35.6180 -76.9560 211° Southwest 457 526 36,000  Level FlightAware
07:25AM 35.5440 -77.0110 211° Southwest 457 526 36,000  Level FlightAware
07:25AM 35.4880 -77.0520 211° Southwest 457 526 36,000  Level FlightAware
07:26AM 35.4130 -77.1070 211° Southwest 457 526 36,000  Level FlightAware
07:27AM 35.3570 -77.1480 211° Southwest 457 526 36,000  Level FlightAware
07:27AM 35.3020 -77.1890 211° Southwest 457 526 36,000  Level FlightAware
07:28AM 35.2280 -77.2430 211° Southwest 457 526 36,000  Level FlightAware
07:29AM 35.1720 -77.2840 211° Southwest 457 526 36,000  Level FlightAware
07:29AM 35.1170 -77.3250 211° Southwest 457 526 36,000  Level FlightAware
07:30AM 35.0620 -77.3660 211° Southwest 457 526 36,000  Level FlightAware
07:31AM 35.0060 -77.4060 210° Southwest 457 526 36,000  Level FlightAware
07:31AM 34.9320 -77.4610 211° Southwest 457 526 36,000  Level FlightAware
07:32AM 34.8770 -77.5010 211° Southwest 457 526 36,000  Level FlightAware
07:38AM 34.0230 -77.9910 205° Southwest 476 548 36,000  Level FlightAware
07:39AM 33.9100 -78.0330 197° South 476 548 36,000  Level FlightAware
07:39AM 33.8110 -78.0690 197° South 478 550 36,000  Level FlightAware
07:40AM 33.7380 -78.0960 197° South 478 550 36,000  Level FlightAware
07:41AM 33.6320 -78.1340 197° South 478 550 36,000  Level FlightAware
07:41AM 33.5490 -78.1650 197° South 479 551 36,000  Level FlightAware
07:42AM 33.4600 -78.1960 196° South 480 552 36,000  Level FlightAware
07:43AM 33.3590 -78.2340 197° South 478 550 36,000  Level FlightAware
07:44AM 33.2590 -78.2700 197° South 478 550 36,000  Level FlightAware
07:44AM 33.1530 -78.3080 197° South 478 550 36,000  Level FlightAware
07:45AM 33.0680 -78.3390 197° South 479 551 36,000  Level FlightAware
07:46AM 32.9730 -78.3730 197° South 478 550 36,000  Level FlightAware
07:47AM 32.8770 -78.4070 197° South 480 552 36,000  Level FlightAware
07:47AM 32.8090 -78.4320 197° South 479 551 36,000  Level FlightAware
07:48AM 32.7190 -78.4640 197° South 478 550 36,000  Level FlightAware
07:49AM 32.6290 -78.4960 197° South 476 548 36,000  Level FlightAware
07:49AM 32.5480 -78.5250 197° South 474 545 36,000  Level FlightAware
07:50AM 32.4670 -78.5540 197° South 474 545 36,000  Level FlightAware
07:51AM 32.3810 -78.5840 196° South 473 544 36,000  Level FlightAware
07:51AM 32.2890 -78.6170 197° South 472 543 36,000  Level FlightAware
07:52AM 32.2160 -78.6430 197° South 473 544 36,000  Level FlightAware
07:53AM 32.0970 -78.6850 197° South 476 548 36,000  Level FlightAware
07:53AM 32.0130 -78.7140 196° South 474 545 36,000  Level FlightAware
07:54AM 31.9360 -78.7410 197° South 475 547 36,000  Level FlightAware
07:55AM 31.8630 -78.7660 196° South 476 548 36,000  Level FlightAware
07:55AM 31.7740 -78.7980 197° South 473 544 36,000 60 Level FlightAware
07:56AM 31.6520 -78.8400 196° South 470 541 36,100 60 Climbing FlightAware
07:57AM 31.5880 -78.8610 196° South 470 541 36,100  Level FlightAware
07:58AM 31.5250 -78.8830 197° South 470 541 36,100  Level FlightAware
07:58AM 31.4390 -78.9120 196° South 470 541 36,100  Level FlightAware
07:59AM 31.3540 -78.9400 196° South 470 541 36,100  Level FlightAware
08:00AM 31.2810 -78.9650 196° South 470 541 36,100  Level FlightAware
08:01AM 31.1960 -78.9930 196° South 470 541 36,100  Level FlightAware
08:01AM 31.1320 -79.0150 196° South 470 541 36,100  Level FlightAware
08:02AM 31.0470 -79.0430 196° South 470 541 36,100  Level FlightAware
08:03AM 30.9610 -79.0720 196° South 470 541 36,100  Level FlightAware
08:04AM 30.8550 -79.1070 196° South 470 541 36,100  Level FlightAware
08:05AM 30.7660 -79.1370 196° South 470 541 36,100  Level FlightAware
08:05AM 30.7050 -79.1570 196° South 470 541 36,100 -120 Level FlightAware
08:06AM 30.5033 -79.2811 196° South 467 537 36,000 -120 Descending Jacksonville Center
08:07AM 30.3692 -79.3483 203° Southwest 456 525 35,900 -60 Descending Miami Center
08:08AM 30.2514 -79.4033 202° Southwest 459 528 35,900  Level Miami Center
08:09AM 30.1297 -79.4483 198° South 459 528 35,900  Level Miami Center
08:10AM 30.0039 -79.4908 196° South 454 522 36,000  Climbing Miami Center
08:11AM 29.8825 -79.5094 188° South 454 522 36,000  Level Miami Center
08:12AM 29.7569 -79.5350 190° South 454 522 36,000  Level Miami Center
08:13AM 29.6189 -79.5625 190° South 454 522 36,000  Level Miami Center
08:19AM 28.8910 -79.7750 190° South 469 540 36,000  Level FlightAware
08:20AM 28.7690 -79.8150 196° South 469 540 36,000  Level FlightAware
08:21AM 28.7030 -79.8360 196° South 469 540 36,000  Level FlightAware
08:21AM 28.6180 -79.8640 196° South 469 540 36,000  Level FlightAware
08:22AM 28.5330 -79.8920 196° South 469 540 36,000  Level FlightAware
08:23AM 28.4680 -79.9130 196° South 469 540 36,000  Level FlightAware
08:24AM 28.3810 -79.9410 196° South 469 540 36,000  Level FlightAware
08:24AM 28.2110 -79.9970 196° South 36,000  Level FlightAware
08:25AM 28.1194 -80.0278 196° South 482 555 36,000  Level Miami Center
08:31AM 27.4640 -80.4650 196° South 484 557 36,000  Level FlightAware
08:32AM 27.3760 -80.5300 213° Southwest 485 558 36,000  Level FlightAware
08:32AM 27.3000 -80.5860 213° Southwest 483 556 36,000  Level FlightAware
08:33AM 27.2280 -80.6370 212° Southwest 476 548 36,000  Level FlightAware
08:34AM 27.1420 -80.6750 201° Southwest 476 548 36,000  Level FlightAware
08:34AM 27.0660 -80.7020 198° South 475 547 36,000  Level FlightAware
08:35AM 26.9780 -80.7280 195° South 484 557 36,000  Level FlightAware
08:36AM 26.8790 -80.7440 188° South 485 558 36,000  Level FlightAware
08:36AM 26.8050 -80.7560 188° South 485 558 36,000  Level FlightAware
08:37AM 26.7120 -80.7720 189° South 485 558 36,000  Level FlightAware
08:37AM 26.6230 -80.7870 189° South 485 558 36,000  Level FlightAware
08:38AM 26.5240 -80.8030 188° South 484 557 36,000  Level FlightAware
08:39AM 26.4370 -80.8170 188° South 475 547 36,000  Level FlightAware
08:40AM 26.3440 -80.8320 188° South 484 557 36,000  Level FlightAware
08:40AM 26.2460 -80.8480 188° South 486 559 36,000  Level FlightAware
08:41AM 26.1650 -80.8610 188° South 486 559 36,000  Level FlightAware
08:42AM 26.0560 -80.8790 188° South 486 559 36,000  Level FlightAware
08:42AM 25.9650 -80.8940 188° South 484 557 36,000  Level FlightAware
08:43AM 25.8660 -80.9100 188° South 475 547 36,000  Level FlightAware
08:44AM 25.7780 -80.9240 188° South 473 544 36,000  Level FlightAware
08:45AM 25.6780 -80.9400 188° South 472 543 36,000  Level FlightAware
08:45AM 25.5910 -80.9540 188° South 472 543 36,000 60 Level FlightAware
08:46AM 25.5050 -80.9680 188° South 473 544 36,100 300 Climbing FlightAware
08:47AM 25.3700 -80.9900 188° South 475 547 36,500 360 Climbing FlightAware
08:48AM 25.2100 -81.0160 188° South 472 543 37,000 180 Climbing FlightAware
08:49AM 25.0790 -81.0370 188° South 472 543 37,000  Level FlightAware
08:50AM 24.9900 -81.0510 188° South 473 544 37,000  Level FlightAware
08:50AM 24.9020 -81.0650 188° South 475 547 37,000  Level FlightAware
08:51AM 24.8350 -81.0760 188° South 475 547 37,000  Level FlightAware
08:52AM 24.7460 -81.0900 188° South 475 547 37,000  Level FlightAware
08:52AM 24.6480 -81.1050 188° South 474 545 37,000  Level FlightAware
08:53AM 24.5810 -81.1150 188° South 473 544 37,000  Level FlightAware
08:54AM 24.4820 -81.1290 187° South 473 544 37,000  Level FlightAware
08:54AM 24.4040 -81.1420 189° South 472 543 37,000  Level FlightAware
08:55AM 24.3050 -81.1610 190° South 471 542 37,000  Level FlightAware
08:56AM 24.2180 -81.1770 190° South 470 541 37,000  Level FlightAware
08:56AM 24.1270 -81.1940 190° South 477 549 37,000  Level FlightAware
08:57AM 24.0020 -81.2350 197° South 468 539 37,000  Level FlightAware
08:58AM 23.9270 -81.2750 206° Southwest 466 536 37,000  Level FlightAware
08:59AM 23.8430 -81.3360 214° Southwest 471 542 37,000  Level FlightAware
08:59AM 23.7800 -81.3830 214° Southwest 471 542 37,000  Level FlightAware
09:00AM 23.7160 -81.4310 214° Southwest 470 541 37,000  Level FlightAware
09:01AM 23.6080 -81.5120 215° Southwest 470 541 37,000  Level FlightAware
09:01AM 23.5380 -81.5650 215° Southwest 471 542 37,000  Level FlightAware
09:02AM 23.4750 -81.6120 214° Southwest 472 543 37,000  Level FlightAware
09:03AM 23.3920 -81.6740 214° Southwest 473 544 37,000  Level FlightAware
09:04AM 23.3110 -81.7340 214° Southwest 473 544 37,000  Level FlightAware
09:04AM 23.2340 -81.7920 215° Southwest 472 543 37,000  Level FlightAware
09:06AM 23.0980 -81.8930 214° Southwest 469 540 37,000  Level FlightAware
09:06AM 23.0150 -81.9540 214° Southwest 469 540 37,000  Level FlightAware
09:07AM 22.9310 -82.0160 214° Southwest 470 541 37,000  Level FlightAware
09:08AM 22.8760 -82.0560 214° Southwest 470 541 37,000  Level FlightAware
09:08AM 22.7880 -82.1220 215° Southwest 469 540 37,000  Level FlightAware
09:09AM 22.7330 -82.1620 214° Southwest 469 540 37,000  Level FlightAware
09:10AM 22.6410 -82.2300 214° Southwest 469 540 37,000  Level FlightAware
09:13AM 22.3983 -82.4295 217° Southwest  Level FlightAware Approximate
09:13AM 22.3520 -82.4400 217° Southwest 469 540 37,000  Level FlightAware
09:14AM 22.2970 -82.4810 215° Southwest 469 540 37,000  Level FlightAware
09:15AM 22.2220 -82.5350 214° Southwest 469 540 37,000  Level FlightAware
09:15AM 22.1670 -82.5750 214° Southwest 469 540 37,000  Level FlightAware
09:16AM 22.0940 -82.6290 214° Southwest 469 540 37,000  Level FlightAware
09:17AM 22.0200 -82.6820 214° Southwest 469 540 37,000  Level FlightAware
09:17AM 21.9640 -82.7230 214° Southwest 469 540 37,000  Level FlightAware
09:20AM 21.7628 -82.8948 218° Southwest  Level FlightAware Approximate
09:21AM 21.6645 -82.9784 218° Southwest  Level FlightAware Approximate
09:22AM 21.5662 -83.0619 218° Southwest  Level FlightAware Approximate
09:23AM 21.4679 -83.1452 218° Southwest  Level FlightAware Approximate
09:24AM 21.3696 -83.2285 218° Southwest  Level FlightAware Approximate
09:25AM 21.2712 -83.3117 218° Southwest  Level FlightAware Approximate
09:26AM 21.1727 -83.3947 218° Southwest  Level FlightAware Approximate
09:26AM 20.9750 -83.5250 218° Southwest 469 540 37,000  Level FlightAware
09:26AM 20.9090 -83.5790 217° Southwest 469 540 37,000  Level FlightAware
09:27AM 20.8430 -83.6330 217° Southwest 469 540 37,000  Level FlightAware
09:28AM 20.7580 -83.7020 217° Southwest 469 540 37,000  Level FlightAware
09:29AM 20.6810 -83.7660 218° Southwest 467 537 37,000  Level FlightAware
09:29AM 20.6250 -83.8120 218° Southwest 466 536 37,000  Level FlightAware
09:30AM 20.5490 -83.8730 217° Southwest 465 535 37,000  Level FlightAware
09:30AM 20.4850 -83.9260 218° Southwest 465 535 37,000  Level FlightAware
09:31AM 20.4110 -83.9850 217° Southwest 465 535 37,000  Level FlightAware
09:32AM 20.3150 -84.0600 216° Southwest 465 535 37,000  Level FlightAware
09:33AM 20.2310 -84.1250 216° Southwest 466 536 37,000  Level FlightAware
09:34AM 20.1680 -84.1750 217° Southwest 467 537 37,000  Level FlightAware
09:34AM 20.0990 -84.2280 216° Southwest 468 539 37,000  Level FlightAware
09:35AM 20.0120 -84.2960 216° Southwest 468 539 37,000  Level FlightAware
09:36AM 19.9210 -84.3670 216° Southwest 469 540 37,000  Level FlightAware
09:37AM 19.8530 -84.4200 216° Southwest 470 541 37,000  Level FlightAware
09:37AM 19.7670 -84.4860 216° Southwest 470 541 37,000  Level FlightAware
09:38AM 19.6960 -84.5410 216° Southwest 470 541 37,000  Level FlightAware
09:39AM 19.6280 -84.5940 216° Southwest 470 541 37,000  Level FlightAware
09:40AM 19.5430 -84.6590 216° Southwest 470 541 37,000  Level FlightAware
09:40AM 19.4890 -84.7010 216° Southwest 470 541 37,000  Level FlightAware
09:41AM 19.3770 -84.7880 216° Southwest 473 544 37,000  Level FlightAware
09:42AM 19.3080 -84.8410 216° Southwest 472 543 37,000  Level FlightAware
09:42AM 19.2500 -84.8860 216° Southwest 473 544 37,000  Level FlightAware
09:43AM 19.1960 -84.9270 216° Southwest 473 544 37,000  Level FlightAware
09:43AM 19.1170 -84.9870 216° Southwest 37,000  Level FlightAware
09:44AM 19.0330 -85.0510 216° Southwest 473 544 37,000  Level FlightAware
09:45AM 18.9310 -85.1300 216° Southwest 472 543 37,000  Level FlightAware
09:46AM 18.8290 -85.2080 216° Southwest 470 541 37,000  Level FlightAware
09:47AM 18.7610 -85.2600 216° Southwest 470 541 37,000  Level FlightAware
09:47AM 18.7000 -85.3060 216° Southwest 470 541 37,000  Level FlightAware
09:48AM 18.6220 -85.3660 216° Southwest 469 540 37,000  Level FlightAware
09:49AM 18.5450 -85.4250 216° Southwest 471 542 37,000  Level FlightAware
09:49AM 18.4950 -85.4630 216° Southwest 471 542 37,000  Level FlightAware
09:50AM 18.4180 -85.5210 216° Southwest 471 542 37,000  Level FlightAware
09:51AM 18.3430 -85.5760 215° Southwest 471 542 37,000  Level FlightAware
09:51AM 18.2780 -85.6270 217° Southwest 471 542 37,000  Level FlightAware
09:52AM 18.1980 -85.6870 215° Southwest 471 542 37,000  Level FlightAware
09:53AM 18.1570 -85.7190 217° Southwest 37,000  Level FlightAware
09:54AM 18.0290 -85.8150 216° Southwest 471 542 37,000  Level FlightAware
09:55AM 17.9390 -85.8820 215° Southwest 471 542 37,000  Level FlightAware
09:55AM 17.8810 -85.9240 215° Southwest 471 542 37,000  Level FlightAware
09:56AM 17.7300 -86.0410 216° Southwest 474 545 37,000  Level FlightAware
09:57AM 17.6650 -86.0880 215° Southwest 474 545 37,000  Level FlightAware
09:58AM 17.6110 -86.1290 216° Southwest 474 545 37,000  Level FlightAware
09:58AM 17.5370 -86.1820 214° Southwest 474 545 37,000  Level FlightAware
09:59AM 17.4820 -86.2230 215° Southwest 474 545 37,000  Level FlightAware
10:00AM 17.4100 -86.2750 215° Southwest 474 545 37,000  Level FlightAware
10:00AM 17.3560 -86.3160 216° Southwest 474 545 37,000  Level FlightAware
10:01AM 17.2790 -86.3720 215° Southwest 474 545 37,000  Level FlightAware
10:02AM 17.2240 -86.4120 215° Southwest 474 545 37,000  Level FlightAware
10:03AM 17.1340 -86.4780 215° Southwest 474 545 37,000  Level FlightAware
10:04AM 17.0410 -86.5460 215° Southwest 474 545 37,000  Level FlightAware
10:04AM 16.9840 -86.5880 215° Southwest 474 545 37,000  Level FlightAware
10:05AM 16.9110 -86.6410 215° Southwest 474 545 37,000  Level FlightAware
10:06AM 16.8560 -86.6820 216° Southwest 474 545 37,000 -900 Level FlightAware
10:09AM 16.6104 -86.9085 221° Southwest  Level FlightAware Approximate
10:10AM 16.5164 -86.9949 221° Southwest  Level FlightAware Approximate
10:11AM 16.4224 -87.0812 221° Southwest  Level FlightAware Approximate
10:12AM 16.3284 -87.1674 221° Southwest  Level FlightAware Approximate
10:13AM 16.2344 -87.2536 221° Southwest  Level FlightAware Approximate
10:14AM 16.1403 -87.3397 221° Southwest  Level FlightAware Approximate
10:15AM 16.0462 -87.4257 221° Southwest  Level FlightAware Approximate
10:16AM 15.9520 -87.5116 221° Southwest  Level FlightAware Approximate
10:17AM 15.8578 -87.5974 221° Southwest  Level FlightAware Approximate
10:18AM 15.7636 -87.6832 221° Southwest  Level FlightAware Approximate
10:19AM 15.6694 -87.7688 221° Southwest  Level FlightAware Approximate
10:20AM 15.5747 -87.8534 220° Southwest  Level FlightAware Approximate
10:21AM 15.4792 -87.9375 224° Southwest  Level FlightAware Approximate
10:22AM 15.3850 -88.0232 221° Southwest  Level FlightAware Approximate
10:23AM 15.2902 -88.1080 221° Southwest  Level FlightAware Approximate
10:24AM 15.1954 -88.1928 221° Southwest  Level FlightAware Approximate
10:25AM 15.0963 -88.2704 224° Southwest  Level FlightAware Approximate
10:26AM 15.0033 -88.3572 222° Southwest  Level FlightAware Approximate
10:27AM 14.9099 -88.4435 222° Southwest  Level FlightAware Approximate
10:28AM 14.8130 -88.5255 217° Southwest  Level FlightAware Approximate
10:29AM 14.7133 -88.6039 217° Southwest  Level FlightAware Approximate
10:30AM 14.6146 -88.6835 221° Southwest  Level FlightAware Approximate
10:31AM 14.5200 -88.7682 221° Southwest  Level FlightAware Approximate
10:32AM 14.4253 -88.8529 221° Southwest  Level FlightAware Approximate
10:33AM 14.3306 -88.9375 221° Southwest  Level FlightAware Approximate
10:34AM 14.2099 -88.9507 186° South  Level FlightAware Approximate
10:35AM 14.0853 -88.9631 186° South  Level FlightAware Approximate
10:35AM 13.8200 -89.0750 186° South 333 383 10,800  Level FlightAware
10:36AM 13.7630 -89.0940 198° South 300 345 10,100 -1,320 Descending FlightAware
10:36AM 13.7220 -89.1060 196° South 300 345 9,200 -1,740 Descending FlightAware
10:36AM 13.6910 -89.1170 199° South 300 345 8,600 -1,320 Descending FlightAware
10:37AM 13.6760 -89.1270 213° Southwest 302 348 8,400 -720 Descending FlightAware
10:37AM 13.6430 -89.1540 218° Southwest 281 323 8,100 -600 Descending FlightAware
10:37AM 13.6310 -89.1630 216° Southwest 273 314 8,000 -1,500 Descending FlightAware
10:38AM 13.6030 -89.1860 219° Southwest 276 318 7,100 -2,040 Descending FlightAware
10:38AM 13.5790 -89.2060 219° Southwest 282 325 6,200 -2,160 Descending FlightAware
10:39AM 13.5560 -89.2240 217° Southwest 286 329 5,500 -1,920 Descending FlightAware
10:39AM 13.5300 -89.2450 218° Southwest 285 328 4,800 -1,680 Descending FlightAware
10:42AM 13.4410 -89.0557 116° Southeast  Level Estimated
10:43AM 13.4410 -89.0557 147° Southeast  Level Estimated
10:44AM 13.4410 -89.0557 147° Southeast  Level Estimated
10:45AM 13.4410 -89.0557 147° Southeast  Level Estimated
10:46AM 13.4410 -89.0557 147° Southeast  Level Estimated
10:47AM 13.4410 -89.0557 147° Southeast  Level Estimated
10:48AM 13.4410 -89.0557 147° Southeast  Level Estimated
10:49AM 13.4410 -89.0557 147° Southeast  Level Estimated
10:50AM 13.4410 -89.0557 147° Southeast  Level Estimated
10:51AM 13.4410 -89.0557 147° Southeast  Level Estimated
10:52AM 13.4410 -89.0557 147° Southeast  Level Estimated
10:53AM 13.4410 -89.0557 147° Southeast  Level Estimated
10:54AM 13.4410 -89.0557 147° Southeast  Level Estimated
10:55AM 13.4410 -89.0557 147° Southeast  Level Estimated
10:56AM 13.4410 -89.0557 147° Southeast  Level Estimated
10:57AM 13.4410 -89.0557 147° Southeast  Level Estimated
10:58AM 13.4410 -89.0557 147° Southeast  Level Estimated
10:59AM 13.4410 -89.0557 147° Southeast  Level Estimated
11:00AM 13.4410 -89.0557 147° Southeast  Level Estimated